createdAt,value
2022-10-25T00:00:18.370Z,26.20
2022-10-25T00:01:18.473Z,26.40
2022-10-25T00:02:18.347Z,25.00
2022-10-25T00:03:18.162Z,22.70
2022-10-25T00:04:18.161Z,21.40
2022-10-25T00:05:18.059Z,18.60
2022-10-25T00:06:17.965Z,20.30
2022-10-25T00:07:17.903Z,20.00
2022-10-25T00:08:17.816Z,19.00
2022-10-25T00:09:17.753Z,18.90
2022-10-25T00:10:19.127Z,18.30
2022-10-25T00:11:17.634Z,19.00
2022-10-25T00:12:17.559Z,15.90
2022-10-25T00:13:17.505Z,18.50
2022-10-25T00:14:17.435Z,20.70
2022-10-25T00:15:17.385Z,18.40
2022-10-25T00:16:17.287Z,14.00
2022-10-25T00:17:17.243Z,17.80
2022-10-25T00:18:17.166Z,14.80
2022-10-25T00:19:17.096Z,16.00
2022-10-25T00:20:17.047Z,13.90
2022-10-25T00:21:16.980Z,13.80
2022-10-25T00:22:16.886Z,11.50
2022-10-25T00:23:16.832Z,10.00
2022-10-25T00:24:16.768Z,15.00
2022-10-25T00:25:16.720Z,13.40
2022-10-25T00:26:16.618Z,13.40
2022-10-25T00:27:16.558Z,13.20
2022-10-25T00:28:16.486Z,13.60
2022-10-25T00:29:16.481Z,13.80
2022-10-25T00:30:16.360Z,14.90
2022-10-25T00:31:16.298Z,13.80
2022-10-25T00:32:16.221Z,13.80
2022-10-25T00:33:16.141Z,15.60
2022-10-25T00:34:16.072Z,24.20
2022-10-25T00:35:16.023Z,19.20
2022-10-25T00:36:15.933Z,20.90
2022-10-25T00:37:15.871Z,27.40
2022-10-25T00:38:15.803Z,23.20
2022-10-25T00:39:15.740Z,21.10
2022-10-25T00:40:15.671Z,20.90
2022-10-25T00:41:15.596Z,20.10
2022-10-25T00:42:15.545Z,17.30
2022-10-25T00:43:15.473Z,21.00
2022-10-25T00:44:15.403Z,15.30
2022-10-25T00:45:15.353Z,21.20
2022-10-25T00:46:15.264Z,20.00
2022-10-25T00:47:15.205Z,17.90
2022-10-25T00:48:15.126Z,16.90
2022-10-25T00:49:15.065Z,14.50
2022-10-25T00:50:14.993Z,19.10
2022-10-25T00:51:14.945Z,9.00
2022-10-25T00:52:14.855Z,8.70
2022-10-25T00:53:14.806Z,10.30
2022-10-25T00:54:14.771Z,11.30
2022-10-25T00:55:14.667Z,9.20
2022-10-25T00:56:14.620Z,12.90
2022-10-25T00:57:14.554Z,10.10
2022-10-25T00:58:14.477Z,10.50
2022-10-25T00:59:14.417Z,10.10
2022-10-25T01:00:14.347Z,10.80
2022-10-25T01:01:14.361Z,10.70
2022-10-25T01:02:14.337Z,10.10
2022-10-25T01:03:14.157Z,9.70
2022-10-25T01:04:14.078Z,10.70
2022-10-25T01:05:14.009Z,12.50
2022-10-25T01:06:13.950Z,9.70
2022-10-25T01:07:13.871Z,10.10
2022-10-25T01:08:13.812Z,11.90
2022-10-25T01:09:13.739Z,9.20
2022-10-25T01:10:13.664Z,8.40
2022-10-25T01:11:13.669Z,7.60
2022-10-25T01:12:13.539Z,11.80
2022-10-25T01:13:13.492Z,10.30
2022-10-25T01:14:13.421Z,7.70
2022-10-25T01:15:13.352Z,9.50
2022-10-25T01:16:13.283Z,7.50
2022-10-25T01:17:13.233Z,7.60
2022-10-25T01:18:13.132Z,9.20
2022-10-25T01:19:13.074Z,12.60
2022-10-25T01:20:13.013Z,10.40
2022-10-25T01:21:12.940Z,10.20
2022-10-25T01:22:12.883Z,13.90
2022-10-25T01:23:12.827Z,9.80
2022-10-25T01:24:12.843Z,8.50
2022-10-25T01:25:12.676Z,13.40
2022-10-25T01:26:12.627Z,8.80
2022-10-25T01:27:12.567Z,10.60
2022-10-25T01:28:12.485Z,11.50
2022-10-25T01:29:12.426Z,9.70
2022-10-25T01:30:12.357Z,6.80
2022-10-25T01:31:12.314Z,13.30
2022-10-25T01:32:12.245Z,8.50
2022-10-25T01:33:12.187Z,8.20
2022-10-25T01:34:12.120Z,8.30
2022-10-25T01:35:12.058Z,10.80
2022-10-25T01:37:11.955Z,10.40
2022-10-25T01:38:11.890Z,11.10
2022-10-25T01:39:11.823Z,8.60
2022-10-25T01:40:11.759Z,8.80
2022-10-25T01:41:11.690Z,9.10
2022-10-25T01:42:11.630Z,8.00
2022-10-25T01:43:11.569Z,10.20
2022-10-25T01:44:11.491Z,8.80
2022-10-25T01:45:11.452Z,9.30
2022-10-25T01:46:11.371Z,8.90
2022-10-25T01:47:11.301Z,6.60
2022-10-25T01:48:11.262Z,10.20
2022-10-25T01:49:11.182Z,9.20
2022-10-25T01:50:11.129Z,10.70
2022-10-25T01:51:11.062Z,10.70
2022-10-25T01:52:11.011Z,9.50
2022-10-25T01:53:10.963Z,11.00
2022-10-25T01:54:10.907Z,9.10
2022-10-25T01:55:10.837Z,11.20
2022-10-25T01:56:10.787Z,14.10
2022-10-25T01:57:10.727Z,9.60
2022-10-25T01:58:10.684Z,9.80
2022-10-25T01:59:10.595Z,11.30
2022-10-25T02:00:10.545Z,12.40
2022-10-25T02:01:10.555Z,10.00
2022-10-25T02:02:10.444Z,12.70
2022-10-25T02:03:10.376Z,12.70
2022-10-25T02:04:10.336Z,13.30
2022-10-25T02:05:10.256Z,13.10
2022-10-25T02:06:10.206Z,12.40
2022-10-25T02:07:10.145Z,10.90
2022-10-25T02:08:10.077Z,18.50
2022-10-25T02:09:10.026Z,9.60
2022-10-25T02:10:09.973Z,12.50
2022-10-25T02:11:09.899Z,11.00
2022-10-25T02:12:09.846Z,14.20
2022-10-25T02:13:09.787Z,14.30
2022-10-25T02:14:09.738Z,12.90
2022-10-25T02:15:09.658Z,13.30
2022-10-25T02:16:09.614Z,16.00
2022-10-25T02:17:09.550Z,12.70
2022-10-25T02:18:09.491Z,9.50
2022-10-25T02:19:09.441Z,10.60
2022-10-25T02:20:09.373Z,11.10
2022-10-25T02:21:09.310Z,9.80
2022-10-25T02:22:09.252Z,10.30
2022-10-25T02:23:09.190Z,9.10
2022-10-25T02:24:09.151Z,12.90
2022-10-25T02:25:09.073Z,12.40
2022-10-25T02:26:09.012Z,11.50
2022-10-25T02:27:08.952Z,11.80
2022-10-25T02:28:08.893Z,8.30
2022-10-25T02:29:08.832Z,10.20
2022-10-25T02:30:08.784Z,13.10
2022-10-25T02:31:08.713Z,8.80
2022-10-25T02:32:08.664Z,16.60
2022-10-25T02:33:08.593Z,10.70
2022-10-25T02:34:08.544Z,9.80
2022-10-25T02:35:08.525Z,11.90
2022-10-25T02:36:08.425Z,10.30
2022-10-25T02:37:08.361Z,10.00
2022-10-25T02:38:08.307Z,7.60
2022-10-25T02:39:08.246Z,13.20
2022-10-25T02:40:08.206Z,9.50
2022-10-25T02:41:08.139Z,11.00
2022-10-25T02:42:08.085Z,13.10
2022-10-25T02:43:08.026Z,8.10
2022-10-25T02:44:07.968Z,12.70
2022-10-25T02:45:07.916Z,9.90
2022-10-25T02:46:07.847Z,11.20
2022-10-25T02:47:07.777Z,24.30
2022-10-25T02:48:07.719Z,15.70
2022-10-25T02:49:07.649Z,9.80
2022-10-25T02:50:07.608Z,14.00
2022-10-25T02:51:07.518Z,10.30
2022-10-25T02:52:07.460Z,9.50
2022-10-25T02:53:07.399Z,13.30
2022-10-25T02:54:07.321Z,10.30
2022-10-25T02:55:07.260Z,9.50
2022-10-25T02:56:07.212Z,11.50
2022-10-25T02:57:07.135Z,12.30
2022-10-25T02:58:07.070Z,8.40
2022-10-25T02:59:06.999Z,9.00
2022-10-25T03:00:06.955Z,8.40
2022-10-25T03:01:06.952Z,8.90
2022-10-25T03:02:06.832Z,8.20
2022-10-25T03:03:06.742Z,9.90
2022-10-25T03:04:06.686Z,6.70
2022-10-25T03:05:06.637Z,11.70
2022-10-25T03:06:06.574Z,7.70
2022-10-25T03:07:06.502Z,9.50
2022-10-25T03:08:06.436Z,16.00
2022-10-25T03:09:06.383Z,9.70
2022-10-25T03:10:06.316Z,7.70
2022-10-25T03:11:06.275Z,11.90
2022-10-25T03:12:06.204Z,9.30
2022-10-25T03:13:06.144Z,8.40
2022-10-25T03:14:06.075Z,12.90
2022-10-25T03:15:06.030Z,8.10
2022-10-25T03:16:05.964Z,13.10
2022-10-25T03:17:05.916Z,11.80
2022-10-25T03:18:05.846Z,11.30
2022-10-25T03:19:05.795Z,10.60
2022-10-25T03:20:05.729Z,13.20
2022-10-25T03:21:05.680Z,7.60
2022-10-25T03:22:05.628Z,8.30
2022-10-25T03:23:05.558Z,12.60
2022-10-25T03:24:05.479Z,9.50
2022-10-25T03:25:05.493Z,10.00
2022-10-25T03:26:05.360Z,7.20
2022-10-25T03:27:05.299Z,7.80
2022-10-25T03:28:05.221Z,7.00
2022-10-25T03:29:05.169Z,9.60
2022-10-25T03:30:05.111Z,10.60
2022-10-25T03:31:05.051Z,7.20
2022-10-25T03:32:05.014Z,13.30
2022-10-25T03:33:04.943Z,8.50
2022-10-25T03:34:04.871Z,7.90
2022-10-25T03:35:04.823Z,12.10
2022-10-25T03:36:04.763Z,9.10
2022-10-25T03:37:04.740Z,10.50
2022-10-25T03:38:04.664Z,10.70
2022-10-25T03:39:04.594Z,10.30
2022-10-25T03:40:04.533Z,9.30
2022-10-25T03:41:04.475Z,11.70
2022-10-25T03:42:04.428Z,8.30
2022-10-25T03:43:04.368Z,10.60
2022-10-25T03:44:04.307Z,10.50
2022-10-25T03:45:04.253Z,8.30
2022-10-25T03:46:04.187Z,10.80
2022-10-25T03:47:04.136Z,7.90
2022-10-25T03:48:04.086Z,6.90
2022-10-25T03:49:04.018Z,7.50
2022-10-25T03:50:03.964Z,6.60
2022-10-25T03:51:03.905Z,10.90
2022-10-25T03:52:05.102Z,9.50
2022-10-25T03:53:03.896Z,10.70
2022-10-25T03:54:03.751Z,9.50
2022-10-25T03:55:03.691Z,7.60
2022-10-25T03:56:03.631Z,9.50
2022-10-25T03:57:03.578Z,10.20
2022-10-25T03:58:03.518Z,7.00
2022-10-25T03:59:03.468Z,7.40
2022-10-25T04:00:03.389Z,10.10
2022-10-25T04:01:03.422Z,8.70
2022-10-25T04:02:03.338Z,5.00
2022-10-25T04:03:03.266Z,10.30
2022-10-25T04:04:03.158Z,8.80
2022-10-25T04:05:03.080Z,10.40
2022-10-25T04:06:03.010Z,9.30
2022-10-25T04:07:02.952Z,8.30
2022-10-25T04:08:02.890Z,6.50
2022-10-25T04:09:02.809Z,8.80
2022-10-25T04:10:02.745Z,9.60
2022-10-25T04:11:02.671Z,10.10
2022-10-25T04:12:02.615Z,7.70
2022-10-25T04:13:02.553Z,11.50
2022-10-25T04:14:02.477Z,8.50
2022-10-25T04:15:02.433Z,9.00
2022-10-25T04:16:02.346Z,8.40
2022-10-25T04:17:02.325Z,9.70
2022-10-25T04:18:02.223Z,7.50
2022-10-25T04:19:02.204Z,11.40
2022-10-25T04:20:02.094Z,9.40
2022-10-25T04:21:02.032Z,9.40
2022-10-25T04:22:01.952Z,9.20
2022-10-25T04:23:01.875Z,6.40
2022-10-25T04:24:04.247Z,10.70
2022-10-25T04:25:01.751Z,9.20
2022-10-25T04:26:01.658Z,9.20
2022-10-25T04:27:01.589Z,8.50
2022-10-25T04:28:01.517Z,11.70
2022-10-25T04:29:01.467Z,8.90
2022-10-25T04:30:01.397Z,8.60
2022-10-25T04:31:01.318Z,8.40
2022-10-25T04:32:01.237Z,8.30
2022-10-25T04:33:01.175Z,14.30
2022-10-25T04:34:01.120Z,9.80
2022-10-25T04:35:01.048Z,10.20
2022-10-25T04:36:00.980Z,12.60
2022-10-25T04:37:00.892Z,10.50
2022-10-25T04:38:00.840Z,10.00
2022-10-25T04:39:00.774Z,14.50
2022-10-25T04:40:00.770Z,13.80
2022-10-25T04:41:00.620Z,10.00
2022-10-25T04:42:00.568Z,10.10
2022-10-25T04:43:00.472Z,9.60
2022-10-25T04:44:00.419Z,9.00
2022-10-25T04:45:00.341Z,8.30
2022-10-25T04:46:00.287Z,9.80
2022-10-25T04:47:00.214Z,12.50
2022-10-25T04:48:00.132Z,13.20
2022-10-25T04:49:00.087Z,9.30
2022-10-25T04:49:59.993Z,11.00
2022-10-25T04:50:59.934Z,10.80
2022-10-25T04:51:59.855Z,12.00
2022-10-25T04:52:59.785Z,8.10
2022-10-25T04:53:59.721Z,10.10
2022-10-25T04:54:59.645Z,11.20
2022-10-25T04:55:59.586Z,10.60
2022-10-25T04:56:59.506Z,13.80
2022-10-25T04:57:59.436Z,8.00
2022-10-25T04:58:59.374Z,12.00
2022-10-25T04:59:59.304Z,12.60
2022-10-25T05:00:59.257Z,12.30
2022-10-25T05:01:59.177Z,12.90
2022-10-25T05:02:59.153Z,12.20
2022-10-25T05:03:59.035Z,12.50
2022-10-25T05:04:58.969Z,10.80
2022-10-25T05:05:58.909Z,12.30
2022-10-25T05:06:58.839Z,11.10
2022-10-25T05:07:58.769Z,12.20
2022-10-25T05:08:58.700Z,11.40
2022-10-25T05:09:58.629Z,11.90
2022-10-25T05:10:58.569Z,10.80
2022-10-25T05:11:58.502Z,10.00
2022-10-25T05:12:58.438Z,12.40
2022-10-25T05:13:58.368Z,14.40
2022-10-25T05:14:58.311Z,8.70
2022-10-25T05:15:58.232Z,14.20
2022-10-25T05:16:58.199Z,11.20
2022-10-25T05:17:58.100Z,10.00
2022-10-25T05:18:58.033Z,10.30
2022-10-25T05:19:57.963Z,11.20
2022-10-25T05:20:57.906Z,10.00
2022-10-25T05:21:57.846Z,11.10
2022-10-25T05:22:57.771Z,10.60
2022-10-25T05:24:01.402Z,9.00
2022-10-25T05:24:57.635Z,10.20
2022-10-25T05:25:57.564Z,9.20
2022-10-25T05:26:57.515Z,10.00
2022-10-25T05:27:57.435Z,8.20
2022-10-25T05:28:57.364Z,11.60
2022-10-25T05:29:57.291Z,9.20
2022-10-25T05:30:57.272Z,11.70
2022-10-25T05:31:57.177Z,10.90
2022-10-25T05:32:58.739Z,5.80
2022-10-25T05:33:57.026Z,9.70
2022-10-25T05:34:56.956Z,9.50
2022-10-25T05:35:56.887Z,7.20
2022-10-25T05:36:56.819Z,9.70
2022-10-25T05:37:56.760Z,13.60
2022-10-25T05:38:56.678Z,12.80
2022-10-25T05:39:56.608Z,11.60
2022-10-25T05:40:56.593Z,7.50
2022-10-25T05:41:56.460Z,8.60
2022-10-25T05:42:56.416Z,13.80
2022-10-25T05:43:56.327Z,12.00
2022-10-25T05:44:56.260Z,8.80
2022-10-25T05:45:56.207Z,13.00
2022-10-25T05:46:56.111Z,7.30
2022-10-25T05:47:56.051Z,12.30
2022-10-25T05:48:55.984Z,9.90
2022-10-25T05:49:55.900Z,11.20
2022-10-25T05:51:03.519Z,10.20
2022-10-25T05:51:56.762Z,10.40
2022-10-25T05:52:55.712Z,10.70
2022-10-25T05:53:55.629Z,8.50
2022-10-25T05:54:55.562Z,7.30
2022-10-25T05:55:55.491Z,7.70
2022-10-25T05:56:55.423Z,7.30
2022-10-25T05:57:55.363Z,7.30
2022-10-25T05:58:55.314Z,8.10
2022-10-25T05:59:55.227Z,11.10
2022-10-25T06:00:55.193Z,11.80
2022-10-25T06:01:55.218Z,9.40
2022-10-25T06:02:55.024Z,11.40
2022-10-25T06:03:54.962Z,9.80
2022-10-25T06:04:54.886Z,7.20
2022-10-25T06:05:54.815Z,9.20
2022-10-25T06:06:54.747Z,11.20
2022-10-25T06:07:54.685Z,12.20
2022-10-25T06:08:54.627Z,11.00
2022-10-25T06:09:54.542Z,9.30
2022-10-25T06:10:54.471Z,9.50
2022-10-25T06:11:54.388Z,11.90
2022-10-25T06:12:54.329Z,8.60
2022-10-25T06:13:54.267Z,11.00
2022-10-25T06:14:54.180Z,8.30
2022-10-25T06:15:54.111Z,12.20
2022-10-25T06:16:54.038Z,7.40
2022-10-25T06:17:53.960Z,11.70
2022-10-25T06:18:53.918Z,8.80
2022-10-25T06:19:53.818Z,11.20
2022-10-25T06:20:53.743Z,7.60
2022-10-25T06:21:53.661Z,8.90
2022-10-25T06:22:53.588Z,8.90
2022-10-25T06:23:53.512Z,7.10
2022-10-25T06:24:53.459Z,8.40
2022-10-25T06:25:53.369Z,8.50
2022-10-25T06:26:53.306Z,8.20
2022-10-25T06:27:53.234Z,6.10
2022-10-25T06:28:53.176Z,12.10
2022-10-25T06:29:53.120Z,7.80
2022-10-25T06:30:53.045Z,13.80
2022-10-25T06:31:52.976Z,6.00
2022-10-25T06:32:52.913Z,11.10
2022-10-25T06:33:52.837Z,10.90
2022-10-25T06:34:52.783Z,6.60
2022-10-25T06:35:52.695Z,6.80
2022-10-25T06:36:52.629Z,9.10
2022-10-25T06:37:52.555Z,7.90
2022-10-25T06:38:52.500Z,8.80
2022-10-25T06:39:52.426Z,7.70
2022-10-25T06:40:52.348Z,8.60
2022-10-25T06:41:52.288Z,9.60
2022-10-25T06:42:52.215Z,8.80
2022-10-25T06:43:52.151Z,9.60
2022-10-25T06:44:52.090Z,13.90
2022-10-25T06:45:51.995Z,7.90
2022-10-25T06:47:16.009Z,8.50
2022-10-25T06:47:52.855Z,7.60
2022-10-25T06:48:51.812Z,9.80
2022-10-25T06:49:51.720Z,7.00
2022-10-25T06:50:52.278Z,12.20
2022-10-25T06:51:51.559Z,7.90
2022-10-25T06:52:51.497Z,8.50
2022-10-25T06:53:51.434Z,5.80
2022-10-25T06:54:51.360Z,8.10
2022-10-25T06:55:51.300Z,7.10
2022-10-25T06:56:51.223Z,12.20
2022-10-25T06:57:51.141Z,10.70
2022-10-25T06:58:51.102Z,8.70
2022-10-25T06:59:51.036Z,9.90
2022-10-25T07:00:50.961Z,8.80
2022-10-25T07:01:51.013Z,9.60
2022-10-25T07:02:50.789Z,6.50
2022-10-25T07:03:50.747Z,7.70
2022-10-25T07:04:50.632Z,8.20
2022-10-25T07:05:50.573Z,7.80
2022-10-25T07:06:52.991Z,7.10
2022-10-25T07:07:59.067Z,7.60
2022-10-25T07:08:50.329Z,12.50
2022-10-25T07:09:50.257Z,7.80
2022-10-25T07:10:50.203Z,6.90
2022-10-25T07:11:50.117Z,7.60
2022-10-25T07:12:50.057Z,9.00
2022-10-25T07:13:49.979Z,8.70
2022-10-25T07:14:49.935Z,8.20
2022-10-25T07:15:49.891Z,9.30
2022-10-25T07:16:49.793Z,10.20
2022-10-25T07:17:49.884Z,7.80
2022-10-25T07:18:49.670Z,8.80
2022-10-25T07:19:49.592Z,10.60
2022-10-25T07:20:49.536Z,10.30
2022-10-25T07:21:49.453Z,10.80
2022-10-25T07:22:49.373Z,8.50
2022-10-25T07:23:49.330Z,7.40
2022-10-25T07:24:49.243Z,10.60
2022-10-25T07:25:49.175Z,8.50
2022-10-25T07:26:49.112Z,9.40
2022-10-25T07:27:49.368Z,7.60
2022-10-25T07:28:48.953Z,5.10
2022-10-25T07:29:48.875Z,6.80
2022-10-25T07:30:48.801Z,7.60
2022-10-25T07:31:48.739Z,4.60
2022-10-25T07:32:48.675Z,11.10
2022-10-25T07:33:48.594Z,7.50
2022-10-25T07:34:48.564Z,7.20
2022-10-25T07:35:59.042Z,9.10
2022-10-25T07:36:49.366Z,8.20
2022-10-25T07:37:48.615Z,12.60
2022-10-25T07:38:48.250Z,10.20
2022-10-25T07:39:48.178Z,11.50
2022-10-25T07:40:48.101Z,8.00
2022-10-25T07:41:48.031Z,9.40
2022-10-25T07:42:47.969Z,7.70
2022-10-25T07:43:47.891Z,9.30
2022-10-25T07:44:47.811Z,9.00
2022-10-25T07:45:47.729Z,12.50
2022-10-25T07:46:47.649Z,10.50
2022-10-25T07:47:47.851Z,9.20
2022-10-25T07:48:47.512Z,7.40
2022-10-25T07:49:47.444Z,11.20
2022-10-25T07:50:47.370Z,8.40
2022-10-25T07:51:47.279Z,10.70
2022-10-25T07:52:47.192Z,6.50
2022-10-25T07:53:47.140Z,11.80
2022-10-25T07:54:47.053Z,6.70
2022-10-25T07:55:46.984Z,8.20
2022-10-25T07:56:46.902Z,11.70
2022-10-25T07:57:46.906Z,7.70
2022-10-25T07:58:46.768Z,12.20
2022-10-25T07:59:46.652Z,6.40
2022-10-25T08:00:46.659Z,11.50
2022-10-25T08:01:46.638Z,8.30
2022-10-25T08:02:46.473Z,9.70
2022-10-25T08:03:46.336Z,5.50
2022-10-25T08:04:46.414Z,7.90
2022-10-25T08:05:46.175Z,6.30
2022-10-25T08:06:46.098Z,6.40
2022-10-25T08:07:46.470Z,6.80
2022-10-25T08:08:45.957Z,7.70
2022-10-25T08:09:45.865Z,7.20
2022-10-25T08:10:45.786Z,8.00
2022-10-25T08:11:45.726Z,7.10
2022-10-25T08:12:45.644Z,9.20
2022-10-25T08:13:45.610Z,7.70
2022-10-25T08:14:47.569Z,11.90
2022-10-25T08:15:45.429Z,9.20
2022-10-25T08:16:45.351Z,7.10
2022-10-25T08:17:45.452Z,5.30
2022-10-25T08:18:45.207Z,10.20
2022-10-25T08:19:50.188Z,10.50
2022-10-25T08:21:01.117Z,6.60
2022-10-25T08:21:45.963Z,7.30
2022-10-25T08:22:44.870Z,8.80
2022-10-25T08:23:44.820Z,7.10
2022-10-25T08:24:44.723Z,7.00
2022-10-25T08:25:44.873Z,7.00
2022-10-25T08:26:44.572Z,10.00
2022-10-25T08:27:44.733Z,11.80
2022-10-25T08:28:44.423Z,9.10
2022-10-25T08:29:44.333Z,10.70
2022-10-25T08:30:44.242Z,8.60
2022-10-25T08:31:44.163Z,9.40
2022-10-25T08:32:44.083Z,8.50
2022-10-25T08:33:44.026Z,10.40
2022-10-25T08:34:43.935Z,7.70
2022-10-25T08:35:43.893Z,8.60
2022-10-25T08:36:43.794Z,10.60
2022-10-25T08:37:43.726Z,8.10
2022-10-25T08:38:43.675Z,11.80
2022-10-25T08:39:43.575Z,8.00
2022-10-25T08:40:43.496Z,9.30
2022-10-25T08:41:43.433Z,9.00
2022-10-25T08:42:43.355Z,7.90
2022-10-25T08:43:43.280Z,8.80
2022-10-25T08:44:43.210Z,8.50
2022-10-25T08:45:44.825Z,10.00
2022-10-25T08:46:43.037Z,11.80
2022-10-25T08:47:42.980Z,10.00
2022-10-25T08:48:42.885Z,11.90
2022-10-25T08:49:42.819Z,12.00
2022-10-25T08:50:42.749Z,12.60
2022-10-25T08:51:42.659Z,15.20
2022-10-25T08:52:42.581Z,14.60
2022-10-25T08:53:42.553Z,12.80
2022-10-25T08:54:42.445Z,12.70
2022-10-25T08:55:53.383Z,9.20
2022-10-25T08:56:56.991Z,15.20
2022-10-25T08:57:43.190Z,11.90
2022-10-25T08:58:42.101Z,14.80
2022-10-25T08:59:42.041Z,15.80
2022-10-25T09:00:41.934Z,16.70
2022-10-25T09:01:41.988Z,25.60
2022-10-25T09:02:41.784Z,23.10
2022-10-25T09:04:41.644Z,22.10
2022-10-25T09:05:41.563Z,21.50
2022-10-25T09:06:41.495Z,28.60
2022-10-25T09:07:42.751Z,27.00
2022-10-25T09:08:41.327Z,32.30
2022-10-25T09:09:41.266Z,28.30
2022-10-25T09:10:41.173Z,33.30
2022-10-25T09:11:41.114Z,28.70
2022-10-25T09:12:41.034Z,29.90
2022-10-25T09:13:40.947Z,28.10
2022-10-25T09:14:40.894Z,28.40
2022-10-25T09:15:43.073Z,26.50
2022-10-25T09:16:40.726Z,27.50
2022-10-25T09:17:40.669Z,27.90
2022-10-25T09:18:40.588Z,33.90
2022-10-25T09:19:40.527Z,31.90
2022-10-25T09:20:40.560Z,29.20
2022-10-25T09:21:40.368Z,30.70
2022-10-25T09:22:40.362Z,29.30
2022-10-25T09:23:40.279Z,30.80
2022-10-25T09:24:40.140Z,29.80
2022-10-25T09:25:40.091Z,32.50
2022-10-25T09:26:39.988Z,32.10
2022-10-25T09:27:39.940Z,34.60
2022-10-25T09:28:39.819Z,34.40
2022-10-25T09:29:39.725Z,32.50
2022-10-25T09:30:39.649Z,32.80
2022-10-25T09:31:39.562Z,29.50
2022-10-25T09:32:39.474Z,29.10
2022-10-25T09:33:39.393Z,28.40
2022-10-25T09:34:39.302Z,32.90
2022-10-25T09:35:39.272Z,34.40
2022-10-25T09:36:39.143Z,29.10
2022-10-25T09:37:39.085Z,34.50
2022-10-25T09:38:39.015Z,35.00
2022-10-25T09:39:38.914Z,32.40
2022-10-25T09:40:44.942Z,32.60
2022-10-25T09:41:39.776Z,37.30
2022-10-25T09:42:38.694Z,33.10
2022-10-25T09:43:38.611Z,30.40
2022-10-25T09:44:38.525Z,29.60
2022-10-25T09:45:39.865Z,33.80
2022-10-25T09:46:38.379Z,35.90
2022-10-25T09:47:38.306Z,33.40
2022-10-25T09:48:38.229Z,28.60
2022-10-25T09:49:38.146Z,35.30
2022-10-25T09:50:38.079Z,31.10
2022-10-25T09:51:37.989Z,34.10
2022-10-25T09:52:37.908Z,38.00
2022-10-25T09:53:37.826Z,35.90
2022-10-25T09:54:37.748Z,34.30
2022-10-25T09:55:37.680Z,37.90
2022-10-25T09:56:37.580Z,34.80
2022-10-25T09:57:37.510Z,33.50
2022-10-25T09:58:37.431Z,36.00
2022-10-25T09:59:37.339Z,40.00
2022-10-25T10:00:37.281Z,37.80
2022-10-25T10:01:37.279Z,37.50
2022-10-25T10:02:37.291Z,40.30
2022-10-25T10:03:37.022Z,39.30
2022-10-25T10:04:36.956Z,35.70
2022-10-25T10:05:36.862Z,35.10
2022-10-25T10:06:36.797Z,35.60
2022-10-25T10:07:36.713Z,37.00
2022-10-25T10:08:36.632Z,38.10
2022-10-25T10:09:36.533Z,33.00
2022-10-25T10:10:36.445Z,38.20
2022-10-25T10:11:36.373Z,33.50
2022-10-25T10:12:36.272Z,28.70
2022-10-25T10:13:36.195Z,27.90
2022-10-25T10:14:36.093Z,30.90
2022-10-25T10:15:36.015Z,30.20
2022-10-25T10:16:35.935Z,30.00
2022-10-25T10:17:35.859Z,30.80
2022-10-25T10:18:35.763Z,30.80
2022-10-25T10:19:35.695Z,30.10
2022-10-25T10:20:35.610Z,30.20
2022-10-25T10:21:35.559Z,30.30
2022-10-25T10:22:35.497Z,26.90
2022-10-25T10:23:35.377Z,30.00
2022-10-25T10:24:35.296Z,30.00
2022-10-25T10:25:35.231Z,37.10
2022-10-25T10:26:35.159Z,27.40
2022-10-25T10:27:35.068Z,27.80
2022-10-25T10:28:34.979Z,28.00
2022-10-25T10:29:34.910Z,31.30
2022-10-25T10:30:34.831Z,33.70
2022-10-25T10:31:34.740Z,27.00
2022-10-25T10:32:34.759Z,30.60
2022-10-25T10:33:34.590Z,28.70
2022-10-25T10:34:34.500Z,30.10
2022-10-25T10:35:34.414Z,32.40
2022-10-25T10:36:34.341Z,34.90
2022-10-25T10:37:34.314Z,31.60
2022-10-25T10:38:34.175Z,33.10
2022-10-25T10:39:34.105Z,31.70
2022-10-25T10:40:34.017Z,34.60
2022-10-25T10:41:33.963Z,31.80
2022-10-25T10:42:33.874Z,28.50
2022-10-25T10:43:33.784Z,33.10
2022-10-25T10:44:33.692Z,34.40
2022-10-25T10:45:33.622Z,35.40
2022-10-25T10:46:33.544Z,40.00
2022-10-25T10:47:33.484Z,34.90
2022-10-25T10:48:33.393Z,37.50
2022-10-25T10:49:33.306Z,39.50
2022-10-25T10:50:33.225Z,28.20
2022-10-25T10:51:43.598Z,35.20
2022-10-25T10:52:34.057Z,38.80
2022-10-25T10:53:32.996Z,39.80
2022-10-25T10:54:32.898Z,38.10
2022-10-25T10:55:32.826Z,41.00
2022-10-25T10:56:32.737Z,43.20
2022-10-25T10:57:32.658Z,37.30
2022-10-25T10:58:32.585Z,36.80
2022-10-25T10:59:32.496Z,29.30
2022-10-25T11:00:32.414Z,31.70
2022-10-25T11:01:32.461Z,26.70
2022-10-25T11:02:32.409Z,27.60
2022-10-25T11:03:32.178Z,30.70
2022-10-25T11:04:32.111Z,33.20
2022-10-25T11:05:32.026Z,37.90
2022-10-25T11:06:31.957Z,39.80
2022-10-25T11:07:31.889Z,40.00
2022-10-25T11:08:31.803Z,38.30
2022-10-25T11:09:31.729Z,29.00
2022-10-25T11:10:31.634Z,34.20
2022-10-25T11:11:31.565Z,36.30
2022-10-25T11:12:31.471Z,34.50
2022-10-25T11:13:31.403Z,34.20
2022-10-25T11:14:31.331Z,36.20
2022-10-25T11:15:31.244Z,37.60
2022-10-25T11:16:31.144Z,33.90
2022-10-25T11:17:31.054Z,36.60
2022-10-25T11:18:30.972Z,36.30
2022-10-25T11:19:30.895Z,35.70
2022-10-25T11:20:30.815Z,48.70
2022-10-25T11:21:30.726Z,41.10
2022-10-25T11:22:32.869Z,29.90
2022-10-25T11:23:30.556Z,35.20
2022-10-25T11:24:30.444Z,33.60
2022-10-25T11:25:30.373Z,33.10
2022-10-25T11:26:30.276Z,32.40
2022-10-25T11:27:33.057Z,27.00
2022-10-25T11:28:30.098Z,26.20
2022-10-25T11:29:30.018Z,28.90
2022-10-25T11:30:29.939Z,30.20
2022-10-25T11:31:29.848Z,27.70
2022-10-25T11:32:29.791Z,25.70
2022-10-25T11:33:29.669Z,27.60
2022-10-25T11:34:29.579Z,26.30
2022-10-25T11:35:29.515Z,27.20
2022-10-25T11:36:29.410Z,27.70
2022-10-25T11:37:29.311Z,30.20
2022-10-25T11:38:29.231Z,27.20
2022-10-25T11:39:29.131Z,25.80
2022-10-25T11:40:29.078Z,28.80
2022-10-25T11:41:28.960Z,32.60
2022-10-25T11:42:28.883Z,34.90
2022-10-25T11:43:28.806Z,31.40
2022-10-25T11:44:28.704Z,27.70
2022-10-25T11:45:28.616Z,22.80
2022-10-25T11:46:28.502Z,19.10
2022-10-25T11:47:28.417Z,25.00
2022-10-25T11:48:28.334Z,15.10
2022-10-25T11:49:28.225Z,17.10
2022-10-25T11:50:28.144Z,12.60
2022-10-25T11:51:28.035Z,12.80
2022-10-25T11:52:27.938Z,17.60
2022-10-25T11:53:27.846Z,16.80
2022-10-25T11:54:27.756Z,14.30
2022-10-25T11:55:27.656Z,16.10
2022-10-25T11:56:27.599Z,16.50
2022-10-25T11:57:27.483Z,8.40
2022-10-25T11:58:27.401Z,14.10
2022-10-25T11:59:27.287Z,12.40
2022-10-25T12:01:27.159Z,8.70
2022-10-25T12:02:27.050Z,10.80
2022-10-25T12:03:26.909Z,18.20
2022-10-25T12:04:28.727Z,10.80
2022-10-25T12:05:26.719Z,10.70
2022-10-25T12:06:26.660Z,8.20
2022-10-25T12:07:26.539Z,14.10
2022-10-25T12:08:26.450Z,8.70
2022-10-25T12:09:26.359Z,13.80
2022-10-25T12:10:26.264Z,14.10
2022-10-25T12:11:26.171Z,16.90
2022-10-25T12:12:26.094Z,9.80
2022-10-25T12:13:25.981Z,13.70
2022-10-25T12:14:25.901Z,11.10
2022-10-25T12:15:25.795Z,13.10
2022-10-25T12:16:25.708Z,9.70
2022-10-25T12:17:25.615Z,12.50
2022-10-25T12:18:26.305Z,14.50
2022-10-25T12:19:25.414Z,11.80
2022-10-25T12:20:25.394Z,8.70
2022-10-25T12:21:25.221Z,10.70
2022-10-25T12:22:25.147Z,11.80
2022-10-25T12:23:25.032Z,11.30
2022-10-25T12:24:24.938Z,10.90
2022-10-25T12:25:24.835Z,13.70
2022-10-25T12:26:24.767Z,12.50
2022-10-25T12:27:24.647Z,9.30
2022-10-25T12:28:24.565Z,14.70
2022-10-25T12:29:24.447Z,16.40
2022-10-25T12:31:24.267Z,10.20
2022-10-25T12:32:24.168Z,12.00
2022-10-25T12:33:24.080Z,14.60
2022-10-25T12:34:23.991Z,14.10
2022-10-25T12:35:23.878Z,12.30
2022-10-25T12:36:23.779Z,10.40
2022-10-25T12:37:23.691Z,8.80
2022-10-25T12:38:23.601Z,13.10
2022-10-25T12:39:23.488Z,17.20
2022-10-25T12:41:23.303Z,9.40
2022-10-25T12:42:23.209Z,17.10
2022-10-25T12:43:23.101Z,19.60
2022-10-25T12:44:23.034Z,21.30
2022-10-25T12:45:22.902Z,13.30
2022-10-25T12:46:22.806Z,11.20
2022-10-25T12:47:22.704Z,12.70
2022-10-25T12:48:22.612Z,11.60
2022-10-25T12:49:22.516Z,8.50
2022-10-25T12:50:22.409Z,10.70
2022-10-25T12:51:22.312Z,9.20
2022-10-25T12:52:22.204Z,10.10
2022-10-25T12:53:22.093Z,8.40
2022-10-25T12:54:22.013Z,7.30
2022-10-25T12:55:21.886Z,11.20
2022-10-25T12:56:21.776Z,10.40
2022-10-25T12:57:21.679Z,12.90
2022-10-25T12:58:21.576Z,8.30
2022-10-25T12:59:21.476Z,7.30
2022-10-25T13:01:21.315Z,8.20
2022-10-25T13:02:21.175Z,7.10
2022-10-25T13:03:21.047Z,7.00
2022-10-25T13:04:20.950Z,7.20
2022-10-25T13:05:20.851Z,7.50
2022-10-25T13:06:20.741Z,7.80